createdAt,value
2022-10-08T00:01:40.825Z,12.70
2022-10-08T00:04:09.139Z,12.70
2022-10-08T00:06:37.434Z,12.70
2022-10-08T00:09:08.353Z,12.70
2022-10-08T00:11:37.889Z,12.70
2022-10-08T00:14:06.272Z,12.70
2022-10-08T00:16:35.587Z,12.60
2022-10-08T00:19:05.991Z,12.60
2022-10-08T00:21:35.074Z,12.60
2022-10-08T00:24:04.090Z,12.60
2022-10-08T00:26:36.595Z,12.60
2022-10-08T00:29:07.497Z,12.60
2022-10-08T00:31:36.567Z,12.60
2022-10-08T00:34:06.004Z,12.60
2022-10-08T00:36:35.357Z,12.60
2022-10-08T00:39:04.830Z,12.60
2022-10-08T00:41:36.099Z,12.60
2022-10-08T00:44:05.269Z,12.70
2022-10-08T00:46:36.944Z,12.70
2022-10-08T00:49:06.224Z,12.70
2022-10-08T00:51:34.984Z,12.70
2022-10-08T00:54:03.721Z,12.70
2022-10-08T00:56:33.881Z,12.70
2022-10-08T00:59:04.001Z,12.70
2022-10-08T01:01:32.389Z,12.60
2022-10-08T01:04:02.892Z,12.60
2022-10-08T01:06:32.102Z,12.60
2022-10-08T01:09:03.055Z,12.60
2022-10-08T01:11:46.240Z,12.60
2022-10-08T01:14:22.972Z,12.50
2022-10-08T01:16:54.352Z,12.50
2022-10-08T01:19:38.781Z,12.50
2022-10-08T01:22:10.931Z,12.50
2022-10-08T01:25:02.229Z,12.40
2022-10-08T01:27:34.256Z,12.40
2022-10-08T01:30:05.942Z,12.40
2022-10-08T01:32:38.853Z,12.40
2022-10-08T01:35:11.272Z,12.40
2022-10-08T01:37:40.494Z,12.40
2022-10-08T01:40:11.517Z,12.40
2022-10-08T01:42:42.143Z,12.40
2022-10-08T01:45:12.394Z,12.40
2022-10-08T01:47:41.474Z,12.40
2022-10-08T01:50:13.629Z,12.50
2022-10-08T01:52:44.207Z,12.60
2022-10-08T01:55:15.027Z,12.60
2022-10-08T01:57:45.547Z,12.60
2022-10-08T02:00:15.559Z,12.70
2022-10-08T02:02:44.251Z,12.60
2022-10-08T02:05:12.970Z,12.60
2022-10-08T02:07:42.676Z,12.60
2022-10-08T02:10:12.056Z,12.60
2022-10-08T02:12:41.127Z,12.60
2022-10-08T02:15:13.416Z,12.60
2022-10-08T02:17:46.927Z,12.60
2022-10-08T02:20:19.455Z,12.60
2022-10-08T02:22:51.607Z,12.60
2022-10-08T02:25:23.726Z,12.50
2022-10-08T02:27:55.348Z,12.40
2022-10-08T02:30:25.352Z,12.50
2022-10-08T02:32:57.301Z,12.50
2022-10-08T02:35:28.027Z,12.50
2022-10-08T02:37:59.368Z,12.50
2022-10-08T02:40:28.659Z,12.50
2022-10-08T02:42:59.327Z,12.50
2022-10-08T02:45:30.620Z,12.50
2022-10-08T02:48:01.566Z,12.50
2022-10-08T02:50:30.864Z,12.50
2022-10-08T02:52:59.969Z,12.50
2022-10-08T02:55:31.392Z,12.60
2022-10-08T02:58:01.849Z,12.60
2022-10-08T03:00:35.417Z,12.50
2022-10-08T03:03:07.537Z,12.50
2022-10-08T03:05:35.967Z,12.50
2022-10-08T03:08:05.925Z,12.40
2022-10-08T03:10:34.986Z,12.50
2022-10-08T03:13:03.707Z,12.50
2022-10-08T03:15:34.497Z,12.50
2022-10-08T03:18:04.077Z,12.50
2022-10-08T03:20:33.456Z,12.50
2022-10-08T03:23:02.906Z,12.60
2022-10-08T03:25:31.407Z,12.60
2022-10-08T03:27:59.705Z,12.50
2022-10-08T03:30:27.922Z,12.50
2022-10-08T03:32:57.625Z,12.60
2022-10-08T03:35:25.855Z,12.60
2022-10-08T03:37:54.736Z,12.50
2022-10-08T03:40:23.183Z,12.50
2022-10-08T03:42:52.285Z,12.50
2022-10-08T03:45:20.464Z,12.50
2022-10-08T03:47:51.734Z,12.50
2022-10-08T03:50:21.788Z,12.50
2022-10-08T03:52:50.275Z,12.60
2022-10-08T03:55:18.714Z,12.60
2022-10-08T03:57:46.905Z,12.50
2022-10-08T04:00:15.265Z,12.50
2022-10-08T04:02:43.599Z,12.40
2022-10-08T04:05:11.861Z,12.40
2022-10-08T04:07:41.540Z,12.40
2022-10-08T04:10:10.123Z,12.40
2022-10-08T04:12:38.324Z,12.40
2022-10-08T04:15:07.141Z,12.40
2022-10-08T04:17:35.543Z,12.30
2022-10-08T04:20:03.764Z,12.30
2022-10-08T04:22:31.952Z,12.30
2022-10-08T04:25:01.643Z,12.30
2022-10-08T04:27:29.833Z,12.30
2022-10-08T04:29:58.022Z,12.30
2022-10-08T04:32:26.554Z,12.30
2022-10-08T04:34:54.752Z,12.40
2022-10-08T04:37:22.982Z,12.40
2022-10-08T04:39:51.483Z,12.40
2022-10-08T04:42:21.104Z,12.40
2022-10-08T04:44:49.343Z,12.40
2022-10-08T04:47:17.713Z,12.40
2022-10-08T04:49:46.023Z,12.40
2022-10-08T04:52:16.984Z,12.40
2022-10-08T04:54:45.323Z,12.40
2022-10-08T04:57:13.842Z,12.40
2022-10-08T04:59:59.694Z,12.40
2022-10-08T05:02:31.818Z,12.50
2022-10-08T05:05:00.093Z,12.50
2022-10-08T05:07:29.441Z,12.50
2022-10-08T05:09:57.732Z,12.60
2022-10-08T05:12:25.942Z,12.60
2022-10-08T05:14:55.603Z,12.60
2022-10-08T05:17:23.822Z,12.60
2022-10-08T05:19:52.073Z,12.50
2022-10-08T05:22:20.313Z,12.50
2022-10-08T05:24:48.562Z,12.50
2022-10-08T05:27:16.763Z,12.50
2022-10-08T05:29:44.990Z,12.50
2022-10-08T05:32:14.653Z,12.50
2022-10-08T05:34:42.912Z,12.40
2022-10-08T05:37:11.109Z,12.50
2022-10-08T05:39:39.522Z,12.50
2022-10-08T05:42:07.787Z,12.40
2022-10-08T05:44:37.740Z,12.40
2022-10-08T05:47:06.392Z,12.50
2022-10-08T05:49:37.002Z,12.50
2022-10-08T05:52:05.272Z,12.50
2022-10-08T05:54:33.660Z,12.50
2022-10-08T05:57:01.943Z,12.60
2022-10-08T05:59:30.304Z,12.60
2022-10-08T06:01:59.053Z,12.60
2022-10-08T06:04:27.401Z,12.60
2022-10-08T06:06:57.179Z,12.60
2022-10-08T06:09:25.459Z,12.60
2022-10-08T06:11:53.991Z,12.70
2022-10-08T06:14:22.242Z,12.70
2022-10-08T06:16:50.563Z,12.70
2022-10-08T06:19:18.860Z,12.70
2022-10-08T06:21:47.135Z,12.80
2022-10-08T06:24:17.200Z,12.80
2022-10-08T06:26:45.672Z,12.70
2022-10-08T06:29:15.291Z,12.80
2022-10-08T06:31:43.749Z,12.80
2022-10-08T06:34:12.175Z,12.80
2022-10-08T06:36:40.725Z,12.90
2022-10-08T06:39:10.972Z,13.00
2022-10-08T06:41:40.581Z,13.10
2022-10-08T06:44:11.732Z,13.10
2022-10-08T06:46:40.175Z,13.10
2022-10-08T06:49:08.686Z,13.20
2022-10-08T06:51:36.959Z,13.30
2022-10-08T06:54:08.134Z,13.40
2022-10-08T06:56:37.399Z,13.50
2022-10-08T06:59:07.924Z,13.50
2022-10-08T07:01:36.569Z,13.50
2022-10-08T07:04:06.995Z,13.60
2022-10-08T07:06:36.302Z,13.50
2022-10-08T07:09:05.043Z,13.60
2022-10-08T07:11:33.868Z,13.60
2022-10-08T07:14:02.121Z,13.60
2022-10-08T07:16:32.097Z,13.60
2022-10-08T07:19:00.461Z,13.60
2022-10-08T07:21:30.224Z,13.70
2022-10-08T07:24:00.633Z,13.70
2022-10-08T07:26:30.041Z,13.70
2022-10-08T07:28:59.202Z,13.80
2022-10-08T07:31:30.018Z,13.80
2022-10-08T07:34:01.068Z,13.90
2022-10-08T07:36:30.305Z,14.00
2022-10-08T07:38:59.244Z,14.10
2022-10-08T07:41:27.927Z,14.20
2022-10-08T07:43:58.653Z,14.30
2022-10-08T07:46:27.658Z,14.50
2022-10-08T07:48:59.525Z,14.60
2022-10-08T07:51:31.441Z,14.70
2022-10-08T07:54:02.724Z,14.80
2022-10-08T07:56:32.503Z,14.80
2022-10-08T07:59:01.158Z,14.90
2022-10-08T08:01:30.366Z,14.80
2022-10-08T08:03:59.736Z,14.80
2022-10-08T08:06:30.115Z,14.80
2022-10-08T08:08:58.380Z,14.90
2022-10-08T08:11:26.924Z,15.00
2022-10-08T08:13:55.241Z,15.20
2022-10-08T08:16:25.598Z,15.20
2022-10-08T08:18:55.371Z,15.20
2022-10-08T08:21:24.540Z,15.30
2022-10-08T08:23:55.604Z,15.30
2022-10-08T08:26:24.487Z,15.20
2022-10-08T08:28:53.508Z,15.20
2022-10-08T08:31:23.481Z,15.30
2022-10-08T08:33:52.406Z,15.50
2022-10-08T08:36:21.154Z,15.50
2022-10-08T08:38:49.425Z,15.50
2022-10-08T08:41:25.524Z,15.50
2022-10-08T08:43:59.021Z,15.70
2022-10-08T08:46:29.635Z,15.70
2022-10-08T08:48:59.803Z,15.70
2022-10-08T08:51:28.124Z,15.70
2022-10-08T08:53:57.564Z,15.80
2022-10-08T08:56:28.271Z,15.80
2022-10-08T08:59:01.775Z,15.90
2022-10-08T09:01:32.213Z,16.00
2022-10-08T09:04:01.402Z,16.10
2022-10-08T09:06:30.409Z,16.20
2022-10-08T09:09:00.929Z,16.20
2022-10-08T09:11:30.909Z,16.20
2022-10-08T09:14:01.770Z,16.40
2022-10-08T09:16:30.064Z,16.60
2022-10-08T09:18:58.365Z,16.60
2022-10-08T09:21:26.675Z,16.70
2022-10-08T09:23:54.902Z,16.60
2022-10-08T09:26:24.174Z,16.50
2022-10-08T09:28:55.312Z,16.40
2022-10-08T09:31:25.639Z,16.40
2022-10-08T09:33:58.542Z,16.40
2022-10-08T09:36:35.621Z,16.40
2022-10-08T09:39:05.321Z,16.50
2022-10-08T09:41:33.841Z,16.70
2022-10-08T09:44:14.753Z,16.80
2022-10-08T09:46:43.498Z,16.90
2022-10-08T09:49:32.653Z,16.90
2022-10-08T09:52:02.783Z,16.80
2022-10-08T09:54:32.863Z,16.80
2022-10-08T09:57:02.113Z,16.80
2022-10-08T09:59:32.983Z,16.70
2022-10-08T10:02:01.344Z,17.00
2022-10-08T10:04:35.434Z,17.20
2022-10-08T10:07:03.809Z,17.40
2022-10-08T10:09:42.385Z,17.50
2022-10-08T10:12:14.743Z,17.40
2022-10-08T10:14:45.982Z,17.40
2022-10-08T10:17:18.449Z,17.30
2022-10-08T10:19:49.059Z,17.20
2022-10-08T10:22:19.328Z,17.10
2022-10-08T10:24:50.579Z,17.00
2022-10-08T10:27:21.638Z,16.80
2022-10-08T10:29:54.611Z,16.80
2022-10-08T10:32:28.532Z,16.80
2022-10-08T10:35:03.169Z,16.80
2022-10-08T10:37:34.918Z,16.80
2022-10-08T10:40:11.558Z,16.90
2022-10-08T10:42:45.229Z,16.90
2022-10-08T10:45:19.736Z,16.90
2022-10-08T10:47:48.914Z,16.90
2022-10-08T10:50:24.717Z,16.90
2022-10-08T10:52:59.266Z,17.00
2022-10-08T10:55:31.987Z,16.90
2022-10-08T10:58:17.129Z,16.80
2022-10-08T11:00:52.075Z,16.70
2022-10-08T11:03:24.214Z,16.60
2022-10-08T11:05:55.995Z,16.60
2022-10-08T11:08:34.318Z,16.50
2022-10-08T11:11:11.137Z,16.40
2022-10-08T11:13:54.333Z,16.30
2022-10-08T11:16:31.042Z,16.30
2022-10-08T11:19:00.304Z,16.20
2022-10-08T11:21:38.844Z,16.00
2022-10-08T11:24:16.366Z,15.90
2022-10-08T11:26:48.083Z,15.80
2022-10-08T11:29:21.203Z,15.70
2022-10-08T11:31:52.273Z,15.70
2022-10-08T11:34:25.295Z,15.60
2022-10-08T11:37:01.412Z,15.70
2022-10-08T11:39:32.312Z,15.60
2022-10-08T11:42:04.354Z,15.60
2022-10-08T11:44:32.709Z,15.50
2022-10-08T11:47:15.809Z,15.40
2022-10-08T11:49:54.983Z,15.40
2022-10-08T11:52:23.366Z,15.30
2022-10-08T11:54:55.821Z,15.20
2022-10-08T11:57:55.486Z,15.20
2022-10-08T12:00:29.213Z,15.20
2022-10-08T12:02:57.718Z,15.20
2022-10-08T12:05:35.663Z,15.20
2022-10-08T12:08:06.444Z,15.20
2022-10-08T12:10:35.541Z,15.10
2022-10-08T12:13:06.561Z,15.00
2022-10-08T12:16:07.047Z,14.90
2022-10-08T12:18:53.094Z,14.80
2022-10-08T12:21:37.426Z,14.90
2022-10-08T12:24:20.575Z,15.00
2022-10-08T12:27:06.798Z,15.20
2022-10-08T12:29:53.823Z,15.30
2022-10-08T12:32:23.855Z,15.40
2022-10-08T12:34:52.505Z,15.40
2022-10-08T12:37:32.522Z,15.40
2022-10-08T12:40:04.402Z,15.50
2022-10-08T12:42:34.115Z,15.50
2022-10-08T12:45:07.602Z,15.60
2022-10-08T12:47:41.432Z,15.60
2022-10-08T12:50:20.312Z,15.60
2022-10-08T12:52:49.020Z,15.70
2022-10-08T12:55:18.948Z,15.70
2022-10-08T12:57:48.573Z,15.60
2022-10-08T13:00:22.256Z,15.60
2022-10-08T13:03:01.800Z,15.50
2022-10-08T13:05:31.102Z,15.50
2022-10-08T13:07:59.572Z,15.50
2022-10-08T13:10:28.781Z,15.40
2022-10-08T13:13:00.922Z,15.30
2022-10-08T13:15:29.151Z,15.30
2022-10-08T13:17:57.592Z,15.30
2022-10-08T13:20:27.591Z,15.20
2022-10-08T13:22:55.871Z,15.40
2022-10-08T13:25:39.445Z,15.50
2022-10-08T13:28:11.846Z,15.60
2022-10-08T13:30:40.667Z,15.60
2022-10-08T13:33:13.451Z,15.60
2022-10-08T13:35:44.207Z,15.60
2022-10-08T13:38:19.975Z,15.50
2022-10-08T13:40:52.565Z,15.40
2022-10-08T13:43:21.188Z,15.20
2022-10-08T13:45:49.490Z,15.10
2022-10-08T13:48:17.765Z,15.10
2022-10-08T13:50:49.095Z,15.10
2022-10-08T13:53:18.396Z,15.00
2022-10-08T13:55:47.872Z,15.10
2022-10-08T13:58:17.051Z,15.10
2022-10-08T14:00:46.078Z,15.10
2022-10-08T14:03:14.847Z,15.00
2022-10-08T14:05:44.252Z,14.90
2022-10-08T14:08:16.073Z,15.00
2022-10-08T14:10:44.881Z,15.00
2022-10-08T14:13:13.964Z,14.90
2022-10-08T14:15:42.322Z,14.80
2022-10-08T14:18:10.524Z,14.80
2022-10-08T14:20:39.432Z,14.80
2022-10-08T14:23:07.774Z,14.80
2022-10-08T14:25:37.461Z,14.80
2022-10-08T14:28:05.778Z,14.80
2022-10-08T14:30:34.141Z,14.90
2022-10-08T14:33:03.495Z,14.80
2022-10-08T14:35:33.126Z,14.80
2022-10-08T14:38:01.701Z,14.70
2022-10-08T14:40:29.929Z,14.70
2022-10-08T14:42:59.949Z,14.80
2022-10-08T14:45:29.039Z,14.80
2022-10-08T14:47:57.387Z,14.80
2022-10-08T14:50:25.621Z,14.90
2022-10-08T14:52:54.128Z,14.90
2022-10-08T14:55:22.337Z,14.90
2022-10-08T14:57:50.777Z,14.90
2022-10-08T15:00:20.607Z,15.00
2022-10-08T15:02:49.583Z,15.00
2022-10-08T15:05:18.208Z,15.00
2022-10-08T15:07:46.742Z,15.00
2022-10-08T15:10:15.227Z,15.00
2022-10-08T15:12:43.567Z,15.00
2022-10-08T15:15:12.308Z,15.00
2022-10-08T15:17:41.970Z,15.00
2022-10-08T15:20:10.953Z,15.00
2022-10-08T15:22:39.616Z,15.00
2022-10-08T15:25:08.249Z,14.90
2022-10-08T15:27:36.565Z,14.90
2022-10-08T15:30:05.098Z,14.90
2022-10-08T15:32:33.417Z,14.80
2022-10-08T15:35:03.028Z,14.70
2022-10-08T15:37:31.350Z,14.70
2022-10-08T15:39:59.570Z,14.60
2022-10-08T15:42:27.811Z,14.50
2022-10-08T15:44:56.168Z,14.50
2022-10-08T15:47:24.437Z,14.50
2022-10-08T15:49:52.720Z,14.40
2022-10-08T15:52:22.752Z,14.40
2022-10-08T15:54:51.073Z,14.30
2022-10-08T15:57:19.445Z,14.40
2022-10-08T15:59:48.169Z,14.40
2022-10-08T16:02:18.069Z,14.40
2022-10-08T16:04:47.141Z,14.40
2022-10-08T16:07:16.038Z,14.40
2022-10-08T16:09:45.707Z,14.40
2022-10-08T16:12:13.971Z,14.40
2022-10-08T16:14:42.311Z,14.40
2022-10-08T16:17:10.714Z,14.40
2022-10-08T16:19:39.367Z,14.40
2022-10-08T16:22:08.407Z,14.30
2022-10-08T16:24:37.386Z,14.30
2022-10-08T16:27:07.740Z,14.20
2022-10-08T16:29:36.010Z,14.20
2022-10-08T16:32:04.472Z,14.10
2022-10-08T16:34:33.326Z,14.10
2022-10-08T16:37:02.316Z,14.00
2022-10-08T16:39:30.580Z,14.00
2022-10-08T16:41:59.145Z,13.90
2022-10-08T16:44:29.262Z,13.90
2022-10-08T16:46:57.835Z,13.90
2022-10-08T16:49:27.265Z,13.80
2022-10-08T16:51:56.421Z,13.80
2022-10-08T16:54:25.832Z,13.80
2022-10-08T16:56:54.571Z,13.70
2022-10-08T16:59:23.742Z,13.80
2022-10-08T17:01:55.879Z,13.70
2022-10-08T17:04:26.018Z,13.70
2022-10-08T17:06:54.482Z,13.60
2022-10-08T17:09:23.283Z,13.50
2022-10-08T17:11:52.321Z,13.40
2022-10-08T17:14:20.905Z,13.40
2022-10-08T17:16:50.806Z,13.30
2022-10-08T17:19:20.835Z,13.30
2022-10-08T17:21:49.410Z,13.20
2022-10-08T17:24:18.160Z,13.10
2022-10-08T17:26:46.352Z,13.00
2022-10-08T17:29:14.571Z,13.00
2022-10-08T17:31:43.113Z,12.90
2022-10-08T17:34:12.003Z,12.90
2022-10-08T17:36:44.116Z,12.90
2022-10-08T17:39:14.006Z,12.90
2022-10-08T17:41:43.305Z,12.80
2022-10-08T17:44:12.263Z,12.80
2022-10-08T17:46:42.841Z,12.70
2022-10-08T17:49:11.170Z,12.70
2022-10-08T17:51:39.400Z,12.70
2022-10-08T17:54:12.293Z,12.70
2022-10-08T17:56:41.162Z,12.70
2022-10-08T17:59:09.444Z,12.70
2022-10-08T18:01:41.383Z,12.70
2022-10-08T18:04:13.080Z,12.80
2022-10-08T18:06:42.112Z,12.80
2022-10-08T18:09:13.293Z,12.80
2022-10-08T18:11:43.695Z,12.80
2022-10-08T18:14:12.100Z,12.80
2022-10-08T18:16:47.639Z,12.80
2022-10-08T18:19:16.749Z,12.80
2022-10-08T18:21:45.235Z,12.80
2022-10-08T18:24:15.068Z,12.80
2022-10-08T18:26:43.502Z,12.70
2022-10-08T18:29:12.871Z,12.70
2022-10-08T18:31:42.238Z,12.60
2022-10-08T18:34:13.181Z,12.60
2022-10-08T18:36:41.411Z,12.50
2022-10-08T18:39:12.193Z,12.50
2022-10-08T18:41:42.812Z,12.50
2022-10-08T18:44:12.817Z,12.40
2022-10-08T18:46:42.390Z,12.40
2022-10-08T18:49:13.532Z,12.30
2022-10-08T18:51:41.882Z,12.30
2022-10-08T18:54:10.631Z,12.20
2022-10-08T18:56:41.294Z,12.20
2022-10-08T18:59:13.936Z,12.20
2022-10-08T19:01:42.852Z,12.10
2022-10-08T19:04:13.281Z,12.10
2022-10-08T19:06:42.571Z,12.00
2022-10-08T19:09:11.300Z,11.90
2022-10-08T19:11:44.672Z,11.90
2022-10-08T19:14:16.042Z,11.90
2022-10-08T19:16:44.711Z,11.80
2022-10-08T19:19:14.861Z,11.80
2022-10-08T19:21:43.418Z,11.80
2022-10-08T19:24:13.513Z,11.70
2022-10-08T19:26:41.782Z,11.60
2022-10-08T19:29:12.461Z,11.60
2022-10-08T19:31:42.542Z,11.60
2022-10-08T19:34:14.401Z,11.50
2022-10-08T19:36:42.822Z,11.50
2022-10-08T19:39:13.101Z,11.60
2022-10-08T19:41:42.535Z,11.60
2022-10-08T19:44:11.761Z,11.50
2022-10-08T19:46:41.461Z,11.50
2022-10-08T19:49:10.122Z,11.50
2022-10-08T19:51:38.643Z,11.50
2022-10-08T19:54:07.826Z,11.40
2022-10-08T19:56:36.182Z,11.40
2022-10-08T19:59:04.792Z,11.30
2022-10-08T20:01:34.806Z,11.30
2022-10-08T20:04:05.724Z,11.20
2022-10-08T20:06:35.808Z,11.20
2022-10-08T20:09:06.052Z,11.10
2022-10-08T20:11:34.874Z,11.10
2022-10-08T20:14:03.580Z,10.90
2022-10-08T20:16:32.625Z,10.90
2022-10-08T20:19:02.151Z,10.80
2022-10-08T20:21:32.634Z,10.80
2022-10-08T20:24:00.862Z,10.80
2022-10-08T20:26:30.630Z,10.70
2022-10-08T20:29:00.224Z,10.60
2022-10-08T20:31:29.634Z,10.60
2022-10-08T20:33:58.464Z,10.60
2022-10-08T20:36:27.069Z,10.60
2022-10-08T20:38:57.254Z,10.60
2022-10-08T20:41:30.379Z,10.50
2022-10-08T20:44:02.875Z,10.60
2022-10-08T20:46:32.019Z,10.50
2022-10-08T20:49:00.324Z,10.50
2022-10-08T20:51:29.190Z,10.50
2022-10-08T20:54:00.301Z,10.50
2022-10-08T20:56:29.092Z,10.50
2022-10-08T20:58:58.631Z,10.40
2022-10-08T21:01:27.891Z,10.40
2022-10-08T21:03:57.673Z,10.40
2022-10-08T21:06:27.792Z,10.30
2022-10-08T21:08:56.936Z,10.30
2022-10-08T21:11:28.002Z,10.30
2022-10-08T21:13:56.582Z,10.20
2022-10-08T21:16:26.081Z,10.20
2022-10-08T21:18:56.196Z,10.10
2022-10-08T21:21:24.747Z,10.20
2022-10-08T21:23:53.261Z,10.20
2022-10-08T21:26:22.569Z,10.20
2022-10-08T21:28:53.784Z,10.20
2022-10-08T21:31:23.330Z,10.10
2022-10-08T21:33:52.738Z,10.10
2022-10-08T21:36:21.923Z,10.10
2022-10-08T21:38:53.296Z,10.10
2022-10-08T21:41:23.051Z,10.10
2022-10-08T21:43:53.893Z,10.10
2022-10-08T21:46:23.364Z,10.10
2022-10-08T21:48:55.371Z,9.90
2022-10-08T21:51:23.838Z,10.00
2022-10-08T21:53:53.452Z,9.90
2022-10-08T21:56:23.683Z,9.90
2022-10-08T21:58:54.223Z,9.90
2022-10-08T22:01:23.921Z,10.00
2022-10-08T22:03:54.690Z,10.00
2022-10-08T22:06:23.373Z,10.00
2022-10-08T22:08:52.141Z,9.90
2022-10-08T22:11:20.801Z,9.90
2022-10-08T22:13:49.652Z,9.90
2022-10-08T22:16:20.213Z,9.80
2022-10-08T22:18:48.516Z,9.80
2022-10-08T22:21:17.571Z,9.80
2022-10-08T22:23:46.121Z,9.80
2022-10-08T22:26:15.501Z,9.80
2022-10-08T22:28:44.188Z,9.70
2022-10-08T22:31:13.719Z,9.70
2022-10-08T22:33:43.411Z,9.60
2022-10-08T22:36:12.733Z,9.60
2022-10-08T22:38:42.076Z,9.60
2022-10-08T22:41:11.421Z,9.60
2022-10-08T22:43:40.372Z,9.60
2022-10-08T22:46:09.489Z,9.60
2022-10-08T22:48:37.854Z,9.60
2022-10-08T22:51:08.232Z,9.50
2022-10-08T22:53:36.581Z,9.50
2022-10-08T22:56:05.593Z,9.60
2022-10-08T22:58:34.272Z,9.50
2022-10-08T23:01:03.242Z,9.50
2022-10-08T23:03:31.531Z,9.50
2022-10-08T23:06:04.005Z,9.50
2022-10-08T23:08:33.894Z,9.40
2022-10-08T23:11:02.473Z,9.40
2022-10-08T23:13:31.082Z,9.40
2022-10-08T23:15:59.882Z,9.40
2022-10-08T23:18:28.143Z,9.40
2022-10-08T23:20:56.404Z,9.30
2022-10-08T23:23:24.703Z,9.30
2022-10-08T23:25:58.429Z,9.30
2022-10-08T23:28:27.172Z,9.30
2022-10-08T23:30:56.132Z,9.20
2022-10-08T23:33:24.415Z,9.20
2022-10-08T23:35:56.176Z,9.20
2022-10-08T23:38:24.553Z,9.30
2022-10-08T23:40:52.794Z,9.20
2022-10-08T23:43:22.414Z,9.30
2022-10-08T23:45:50.893Z,9.20
2022-10-08T23:48:19.115Z,9.20
2022-10-08T23:50:50.112Z,9.20
2022-10-08T23:53:18.573Z,9.20
2022-10-08T23:55:47.003Z,9.20
2022-10-08T23:58:17.993Z,9.10
